sensor_id;sensor_type;location;lat;lon;timestamp;temperature;humidity
1570;DHT22;778;50.120;8.698;2022-12-07T00:01:45;5.20;99.90
1570;DHT22;778;50.120;8.698;2022-12-07T00:04:16;5.20;99.90
1570;DHT22;778;50.120;8.698;2022-12-07T00:06:51;5.20;99.90
1570;DHT22;778;50.120;8.698;2022-12-07T00:09:20;5.20;99.90
1570;DHT22;778;50.120;8.698;2022-12-07T00:11:50;5.10;99.90
1570;DHT22;778;50.120;8.698;2022-12-07T00:14:20;5.10;99.90
1570;DHT22;778;50.120;8.698;2022-12-07T00:16:50;5.10;99.90
1570;DHT22;778;50.120;8.698;2022-12-07T00:19:19;5.10;99.90
1570;DHT22;778;50.120;8.698;2022-12-07T00:21:47;5.20;99.90
1570;DHT22;778;50.120;8.698;2022-12-07T00:24:16;5.20;99.90
1570;DHT22;778;50.120;8.698;2022-12-07T00:26:44;5.20;99.90
1570;DHT22;778;50.120;8.698;2022-12-07T00:29:17;5.30;99.90
1570;DHT22;778;50.120;8.698;2022-12-07T00:31:46;5.30;99.90
1570;DHT22;778;50.120;8.698;2022-12-07T00:34:17;5.30;99.90
1570;DHT22;778;50.120;8.698;2022-12-07T00:36:46;5.40;99.90
1570;DHT22;778;50.120;8.698;2022-12-07T00:39:15;5.30;99.90
1570;DHT22;778;50.120;8.698;2022-12-07T00:41:43;5.30;99.90
1570;DHT22;778;50.120;8.698;2022-12-07T00:44:12;5.20;99.90
1570;DHT22;778;50.120;8.698;2022-12-07T00:46:42;5.30;99.90
1570;DHT22;778;50.120;8.698;2022-12-07T00:49:12;5.30;99.90
1570;DHT22;778;50.120;8.698;2022-12-07T00:51:40;5.20;99.90
1570;DHT22;778;50.120;8.698;2022-12-07T00:54:09;5.30;99.90
1570;DHT22;778;50.120;8.698;2022-12-07T00:56:37;5.30;99.90
1570;DHT22;778;50.120;8.698;2022-12-07T00:59:06;5.30;99.90
1570;DHT22;778;50.120;8.698;2022-12-07T01:01:36;5.30;99.90
1570;DHT22;778;50.120;8.698;2022-12-07T01:04:07;5.20;99.90
1570;DHT22;778;50.120;8.698;2022-12-07T01:06:35;5.10;99.90
1570;DHT22;778;50.120;8.698;2022-12-07T01:09:04;5.20;99.90
1570;DHT22;778;50.120;8.698;2022-12-07T01:11:33;5.10;99.90
1570;DHT22;778;50.120;8.698;2022-12-07T01:14:01;5.10;99.90
1570;DHT22;778;50.120;8.698;2022-12-07T01:16:31;5.10;99.90
1570;DHT22;778;50.120;8.698;2022-12-07T01:19:01;5.10;99.90
1570;DHT22;778;50.120;8.698;2022-12-07T01:21:34;5.20;99.90
1570;DHT22;778;50.120;8.698;2022-12-07T01:24:07;5.20;99.90
1570;DHT22;778;50.120;8.698;2022-12-07T01:26:38;5.20;99.90
1570;DHT22;778;50.120;8.698;2022-12-07T01:29:06;5.10;99.90
1570;DHT22;778;50.120;8.698;2022-12-07T01:31:35;5.10;99.90
1570;DHT22;778;50.120;8.698;2022-12-07T01:34:03;5.10;99.90
1570;DHT22;778;50.120;8.698;2022-12-07T01:36:35;5.10;99.90
1570;DHT22;778;50.120;8.698;2022-12-07T01:39:05;5.10;99.90
1570;DHT22;778;50.120;8.698;2022-12-07T01:41:37;5.00;99.90
1570;DHT22;778;50.120;8.698;2022-12-07T01:44:19;5.00;99.90
1570;DHT22;778;50.120;8.698;2022-12-07T01:46:50;5.10;99.90
1570;DHT22;778;50.120;8.698;2022-12-07T01:49:25;5.00;99.90
1570;DHT22;778;50.120;8.698;2022-12-07T01:52:03;5.10;99.90
1570;DHT22;778;50.120;8.698;2022-12-07T01:54:37;5.00;99.90
1570;DHT22;778;50.120;8.698;2022-12-07T01:57:07;5.10;99.90
1570;DHT22;778;50.120;8.698;2022-12-07T01:59:36;5.00;99.90
1570;DHT22;778;50.120;8.698;2022-12-07T02:02:11;5.00;99.90
1570;DHT22;778;50.120;8.698;2022-12-07T02:04:43;5.10;99.90
1570;DHT22;778;50.120;8.698;2022-12-07T02:07:14;5.10;99.90
1570;DHT22;778;50.120;8.698;2022-12-07T02:09:43;5.00;99.90
1570;DHT22;778;50.120;8.698;2022-12-07T02:12:12;5.10;99.90
1570;DHT22;778;50.120;8.698;2022-12-07T02:14:40;5.10;99.90
1570;DHT22;778;50.120;8.698;2022-12-07T02:17:14;5.00;99.90
1570;DHT22;778;50.120;8.698;2022-12-07T02:26:51;4.90;99.90
1570;DHT22;778;50.120;8.698;2022-12-07T02:29:41;4.90;99.90
1570;DHT22;778;50.120;8.698;2022-12-07T02:32:16;4.80;99.90
1570;DHT22;778;50.120;8.698;2022-12-07T02:34:50;4.80;99.90
1570;DHT22;778;50.120;8.698;2022-12-07T02:37:32;4.80;99.90
1570;DHT22;778;50.120;8.698;2022-12-07T02:40:07;4.80;99.90
1570;DHT22;778;50.120;8.698;2022-12-07T02:42:43;4.80;99.90
1570;DHT22;778;50.120;8.698;2022-12-07T02:45:18;4.80;99.90
1570;DHT22;778;50.120;8.698;2022-12-07T02:47:51;4.80;99.90
1570;DHT22;778;50.120;8.698;2022-12-07T02:50:21;4.80;99.90
1570;DHT22;778;50.120;8.698;2022-12-07T02:52:50;4.80;99.90
1570;DHT22;778;50.120;8.698;2022-12-07T02:55:21;4.80;99.90
1570;DHT22;778;50.120;8.698;2022-12-07T02:58:17;4.70;99.90
1570;DHT22;778;50.120;8.698;2022-12-07T03:01:03;4.70;99.90
1570;DHT22;778;50.120;8.698;2022-12-07T03:03:35;4.80;99.90
1570;DHT22;778;50.120;8.698;2022-12-07T03:06:13;4.80;99.90
1570;DHT22;778;50.120;8.698;2022-12-07T03:08:51;4.80;99.90
1570;DHT22;778;50.120;8.698;2022-12-07T03:11:32;4.90;99.90
1570;DHT22;778;50.120;8.698;2022-12-07T03:14:10;4.90;99.90
1570;DHT22;778;50.120;8.698;2022-12-07T03:16:47;4.90;99.90
1570;DHT22;778;50.120;8.698;2022-12-07T03:19:20;4.80;99.90
1570;DHT22;778;50.120;8.698;2022-12-07T03:21:53;4.80;99.90
1570;DHT22;778;50.120;8.698;2022-12-07T03:24:26;4.80;99.90
1570;DHT22;778;50.120;8.698;2022-12-07T03:27:01;4.80;99.90
1570;DHT22;778;50.120;8.698;2022-12-07T03:29:39;4.80;99.90
1570;DHT22;778;50.120;8.698;2022-12-07T03:32:14;4.80;99.90
1570;DHT22;778;50.120;8.698;2022-12-07T03:34:49;4.80;99.90
1570;DHT22;778;50.120;8.698;2022-12-07T03:37:23;4.80;99.90
1570;DHT22;778;50.120;8.698;2022-12-07T03:39:58;4.80;99.90
1570;DHT22;778;50.120;8.698;2022-12-07T03:42:31;4.80;99.90
1570;DHT22;778;50.120;8.698;2022-12-07T03:45:02;4.80;99.90
1570;DHT22;778;50.120;8.698;2022-12-07T03:47:36;4.80;99.90
1570;DHT22;778;50.120;8.698;2022-12-07T03:50:11;4.80;99.90
1570;DHT22;778;50.120;8.698;2022-12-07T03:52:46;4.80;99.90
1570;DHT22;778;50.120;8.698;2022-12-07T03:55:20;4.80;99.90
1570;DHT22;778;50.120;8.698;2022-12-07T03:57:56;4.80;99.90
1570;DHT22;778;50.120;8.698;2022-12-07T04:00:27;4.80;99.90
1570;DHT22;778;50.120;8.698;2022-12-07T04:02:57;4.90;99.90
1570;DHT22;778;50.120;8.698;2022-12-07T04:05:26;4.80;99.90
1570;DHT22;778;50.120;8.698;2022-12-07T04:07:55;4.80;99.90
1570;DHT22;778;50.120;8.698;2022-12-07T04:10:24;4.80;99.90
1570;DHT22;778;50.120;8.698;2022-12-07T04:12:52;4.90;99.90
1570;DHT22;778;50.120;8.698;2022-12-07T04:15:21;4.90;99.90
1570;DHT22;778;50.120;8.698;2022-12-07T04:17:49;5.00;99.90
1570;DHT22;778;50.120;8.698;2022-12-07T04:20:20;4.90;99.90
1570;DHT22;778;50.120;8.698;2022-12-07T04:22:49;4.90;99.90
1570;DHT22;778;50.120;8.698;2022-12-07T04:25:17;4.90;99.90
1570;DHT22;778;50.120;8.698;2022-12-07T04:27:45;5.00;99.90
1570;DHT22;778;50.120;8.698;2022-12-07T04:30:14;5.10;99.90
1570;DHT22;778;50.120;8.698;2022-12-07T04:32:42;5.10;99.90
1570;DHT22;778;50.120;8.698;2022-12-07T04:35:11;5.00;99.90
1570;DHT22;778;50.120;8.698;2022-12-07T04:37:41;5.00;99.90
1570;DHT22;778;50.120;8.698;2022-12-07T04:40:10;5.00;99.90
1570;DHT22;778;50.120;8.698;2022-12-07T04:42:41;5.00;99.90
1570;DHT22;778;50.120;8.698;2022-12-07T04:45:10;4.90;99.90
1570;DHT22;778;50.120;8.698;2022-12-07T04:47:38;4.90;99.90
1570;DHT22;778;50.120;8.698;2022-12-07T04:50:08;4.90;99.90
1570;DHT22;778;50.120;8.698;2022-12-07T04:52:37;4.90;99.90
1570;DHT22;778;50.120;8.698;2022-12-07T04:55:08;4.90;99.90
1570;DHT22;778;50.120;8.698;2022-12-07T04:57:36;4.90;99.90
1570;DHT22;778;50.120;8.698;2022-12-07T05:00:06;4.90;99.90
1570;DHT22;778;50.120;8.698;2022-12-07T05:02:35;4.90;99.90
1570;DHT22;778;50.120;8.698;2022-12-07T05:05:04;4.90;99.90
1570;DHT22;778;50.120;8.698;2022-12-07T05:07:32;4.90;99.90
1570;DHT22;778;50.120;8.698;2022-12-07T05:10:01;4.90;99.90
1570;DHT22;778;50.120;8.698;2022-12-07T05:12:31;4.90;99.90
1570;DHT22;778;50.120;8.698;2022-12-07T05:14:59;4.90;99.90
1570;DHT22;778;50.120;8.698;2022-12-07T05:17:28;4.90;99.90
1570;DHT22;778;50.120;8.698;2022-12-07T05:19:56;4.90;99.90
1570;DHT22;778;50.120;8.698;2022-12-07T05:22:25;4.90;99.90
1570;DHT22;778;50.120;8.698;2022-12-07T05:24:55;4.90;99.90
1570;DHT22;778;50.120;8.698;2022-12-07T05:27:23;4.90;99.90
1570;DHT22;778;50.120;8.698;2022-12-07T05:29:53;4.90;99.90
1570;DHT22;778;50.120;8.698;2022-12-07T05:32:21;5.00;99.90
1570;DHT22;778;50.120;8.698;2022-12-07T05:34:50;4.90;99.90
1570;DHT22;778;50.120;8.698;2022-12-07T05:37:19;5.00;99.90
1570;DHT22;778;50.120;8.698;2022-12-07T05:39:47;5.00;99.90
1570;DHT22;778;50.120;8.698;2022-12-07T05:42:16;5.10;99.90
1570;DHT22;778;50.120;8.698;2022-12-07T05:44:46;5.10;99.90
1570;DHT22;778;50.120;8.698;2022-12-07T05:47:16;5.10;99.90
1570;DHT22;778;50.120;8.698;2022-12-07T05:49:44;5.10;99.90
1570;DHT22;778;50.120;8.698;2022-12-07T05:52:13;5.10;99.90
1570;DHT22;778;50.120;8.698;2022-12-07T05:54:41;5.10;99.90
1570;DHT22;778;50.120;8.698;2022-12-07T05:57:09;5.10;99.90
1570;DHT22;778;50.120;8.698;2022-12-07T05:59:38;5.20;99.90
1570;DHT22;778;50.120;8.698;2022-12-07T06:02:07;5.20;99.90
1570;DHT22;778;50.120;8.698;2022-12-07T06:04:39;5.20;99.90
1570;DHT22;778;50.120;8.698;2022-12-07T06:07:09;5.20;99.90
1570;DHT22;778;50.120;8.698;2022-12-07T06:09:39;5.20;99.90
1570;DHT22;778;50.120;8.698;2022-12-07T06:12:10;5.10;99.90
1570;DHT22;778;50.120;8.698;2022-12-07T06:14:56;5.20;99.90
1570;DHT22;778;50.120;8.698;2022-12-07T06:17:24;5.20;99.90
1570;DHT22;778;50.120;8.698;2022-12-07T06:19:54;5.20;99.90
1570;DHT22;778;50.120;8.698;2022-12-07T06:22:23;5.20;99.90
1570;DHT22;778;50.120;8.698;2022-12-07T06:24:51;5.20;99.90
1570;DHT22;778;50.120;8.698;2022-12-07T06:27:20;5.20;99.90
1570;DHT22;778;50.120;8.698;2022-12-07T06:29:48;5.30;99.90
1570;DHT22;778;50.120;8.698;2022-12-07T06:32:16;5.30;99.90
1570;DHT22;778;50.120;8.698;2022-12-07T06:34:45;5.30;99.90
1570;DHT22;778;50.120;8.698;2022-12-07T06:37:16;5.30;99.90
1570;DHT22;778;50.120;8.698;2022-12-07T06:39:45;5.30;99.90
1570;DHT22;778;50.120;8.698;2022-12-07T06:42:13;5.30;99.90
1570;DHT22;778;50.120;8.698;2022-12-07T06:44:41;5.30;99.90
1570;DHT22;778;50.120;8.698;2022-12-07T06:47:10;5.30;99.90
1570;DHT22;778;50.120;8.698;2022-12-07T06:49:59;5.30;99.90
1570;DHT22;778;50.120;8.698;2022-12-07T06:52:30;5.30;99.90
1570;DHT22;778;50.120;8.698;2022-12-07T06:54:58;5.30;99.90
1570;DHT22;778;50.120;8.698;2022-12-07T06:57:27;5.30;99.90
1570;DHT22;778;50.120;8.698;2022-12-07T06:59:55;5.30;99.90
1570;DHT22;778;50.120;8.698;2022-12-07T07:02:23;5.30;99.90
1570;DHT22;778;50.120;8.698;2022-12-07T07:04:52;5.30;99.90
1570;DHT22;778;50.120;8.698;2022-12-07T07:07:20;5.30;99.90
1570;DHT22;778;50.120;8.698;2022-12-07T07:09:50;5.30;99.90
1570;DHT22;778;50.120;8.698;2022-12-07T07:12:18;5.30;99.90
1570;DHT22;778;50.120;8.698;2022-12-07T07:14:47;5.30;99.90
1570;DHT22;778;50.120;8.698;2022-12-07T07:17:15;5.30;99.90
1570;DHT22;778;50.120;8.698;2022-12-07T07:19:44;5.30;99.90
1570;DHT22;778;50.120;8.698;2022-12-07T07:22:12;5.30;99.90
1570;DHT22;778;50.120;8.698;2022-12-07T07:24:41;5.30;99.90
1570;DHT22;778;50.120;8.698;2022-12-07T07:27:10;5.30;99.90
1570;DHT22;778;50.120;8.698;2022-12-07T07:29:39;5.30;99.90
1570;DHT22;778;50.120;8.698;2022-12-07T07:32:07;5.30;99.90
1570;DHT22;778;50.120;8.698;2022-12-07T07:34:36;5.40;99.90
1570;DHT22;778;50.120;8.698;2022-12-07T07:37:04;5.40;99.90
1570;DHT22;778;50.120;8.698;2022-12-07T07:39:32;5.40;99.90
1570;DHT22;778;50.120;8.698;2022-12-07T07:42:01;5.40;99.90
1570;DHT22;778;50.120;8.698;2022-12-07T07:44:33;5.40;99.90
1570;DHT22;778;50.120;8.698;2022-12-07T07:47:02;5.40;99.90
1570;DHT22;778;50.120;8.698;2022-12-07T07:49:31;5.40;99.90
1570;DHT22;778;50.120;8.698;2022-12-07T07:51:59;5.50;99.90
1570;DHT22;778;50.120;8.698;2022-12-07T07:54:28;5.50;99.90
1570;DHT22;778;50.120;8.698;2022-12-07T07:56:56;5.40;99.90
1570;DHT22;778;50.120;8.698;2022-12-07T07:59:24;5.50;99.90
1570;DHT22;778;50.120;8.698;2022-12-07T08:01:54;5.40;99.90
1570;DHT22;778;50.120;8.698;2022-12-07T08:04:23;5.40;99.90
1570;DHT22;778;50.120;8.698;2022-12-07T08:06:52;5.50;99.90
1570;DHT22;778;50.120;8.698;2022-12-07T08:09:20;5.50;99.90
1570;DHT22;778;50.120;8.698;2022-12-07T08:11:49;5.50;99.90
1570;DHT22;778;50.120;8.698;2022-12-07T08:14:17;5.60;99.90
1570;DHT22;778;50.120;8.698;2022-12-07T08:16:45;5.70;99.90
1570;DHT22;778;50.120;8.698;2022-12-07T08:19:15;5.60;99.90
1570;DHT22;778;50.120;8.698;2022-12-07T08:21:44;5.60;99.90
1570;DHT22;778;50.120;8.698;2022-12-07T08:24:12;5.60;99.90
1570;DHT22;778;50.120;8.698;2022-12-07T08:26:42;5.60;99.90
1570;DHT22;778;50.120;8.698;2022-12-07T08:29:10;5.50;99.90
1570;DHT22;778;50.120;8.698;2022-12-07T08:31:39;5.50;99.90
1570;DHT22;778;50.120;8.698;2022-12-07T08:34:07;5.60;99.90
1570;DHT22;778;50.120;8.698;2022-12-07T08:36:39;5.50;99.90
1570;DHT22;778;50.120;8.698;2022-12-07T08:39:08;5.50;99.90
1570;DHT22;778;50.120;8.698;2022-12-07T08:41:56;5.40;99.90
1570;DHT22;778;50.120;8.698;2022-12-07T08:44:25;5.40;99.90
1570;DHT22;778;50.120;8.698;2022-12-07T08:46:57;5.50;99.90
1570;DHT22;778;50.120;8.698;2022-12-07T08:49:30;5.60;99.90
1570;DHT22;778;50.120;8.698;2022-12-07T08:52:04;5.60;99.90
1570;DHT22;778;50.120;8.698;2022-12-07T08:54:34;5.60;99.90
1570;DHT22;778;50.120;8.698;2022-12-07T08:57:05;5.60;99.90
1570;DHT22;778;50.120;8.698;2022-12-07T08:59:35;5.60;99.90
1570;DHT22;778;50.120;8.698;2022-12-07T09:02:04;5.60;99.90
1570;DHT22;778;50.120;8.698;2022-12-07T09:04:33;5.60;99.90
1570;DHT22;778;50.120;8.698;2022-12-07T09:07:03;5.60;99.90
1570;DHT22;778;50.120;8.698;2022-12-07T09:09:32;5.80;99.90
1570;DHT22;778;50.120;8.698;2022-12-07T09:12:00;5.90;99.90
1570;DHT22;778;50.120;8.698;2022-12-07T09:14:29;5.90;99.90
1570;DHT22;778;50.120;8.698;2022-12-07T09:17:05;6.00;99.90
1570;DHT22;778;50.120;8.698;2022-12-07T09:19:35;6.00;99.90
1570;DHT22;778;50.120;8.698;2022-12-07T09:22:05;5.90;99.90
1570;DHT22;778;50.120;8.698;2022-12-07T09:24:34;6.00;99.90
1570;DHT22;778;50.120;8.698;2022-12-07T09:27:03;6.00;99.90
1570;DHT22;778;50.120;8.698;2022-12-07T09:29:31;6.10;99.90
1570;DHT22;778;50.120;8.698;2022-12-07T09:32:00;6.10;99.90
1570;DHT22;778;50.120;8.698;2022-12-07T09:34:35;6.20;99.90
1570;DHT22;778;50.120;8.698;2022-12-07T09:37:05;6.10;99.90
1570;DHT22;778;50.120;8.698;2022-12-07T09:39:37;6.10;99.90
1570;DHT22;778;50.120;8.698;2022-12-07T09:42:26;6.10;99.90
1570;DHT22;778;50.120;8.698;2022-12-07T09:44:57;6.20;99.90
1570;DHT22;778;50.120;8.698;2022-12-07T09:47:26;6.20;99.90
1570;DHT22;778;50.120;8.698;2022-12-07T09:50:04;6.10;99.90
1570;DHT22;778;50.120;8.698;2022-12-07T09:52:35;6.20;99.90
1570;DHT22;778;50.120;8.698;2022-12-07T09:55:11;6.10;99.90
1570;DHT22;778;50.120;8.698;2022-12-07T09:57:40;6.20;99.90
1570;DHT22;778;50.120;8.698;2022-12-07T10:00:14;6.20;99.90
1570;DHT22;778;50.120;8.698;2022-12-07T10:02:46;6.40;99.90
1570;DHT22;778;50.120;8.698;2022-12-07T10:05:19;6.30;99.90
1570;DHT22;778;50.120;8.698;2022-12-07T10:07:52;6.40;99.90
1570;DHT22;778;50.120;8.698;2022-12-07T10:10:24;6.30;99.90
1570;DHT22;778;50.120;8.698;2022-12-07T10:13:00;6.40;99.90
1570;DHT22;778;50.120;8.698;2022-12-07T10:15:45;6.70;99.90
1570;DHT22;778;50.120;8.698;2022-12-07T10:18:19;6.70;99.90
1570;DHT22;778;50.120;8.698;2022-12-07T10:21:11;6.70;99.90
1570;DHT22;778;50.120;8.698;2022-12-07T10:23:59;6.70;99.90
1570;DHT22;778;50.120;8.698;2022-12-07T10:26:31;6.70;99.90
1570;DHT22;778;50.120;8.698;2022-12-07T10:29:02;6.80;99.90
1570;DHT22;778;50.120;8.698;2022-12-07T10:31:45;6.80;99.90
1570;DHT22;778;50.120;8.698;2022-12-07T10:34:22;6.70;99.90
1570;DHT22;778;50.120;8.698;2022-12-07T10:36:52;6.80;99.90
1570;DHT22;778;50.120;8.698;2022-12-07T10:39:23;7.10;99.90
1570;DHT22;778;50.120;8.698;2022-12-07T10:41:56;7.00;99.90
1570;DHT22;778;50.120;8.698;2022-12-07T10:44:26;7.00;99.90
1570;DHT22;778;50.120;8.698;2022-12-07T10:47:25;7.10;99.90
1570;DHT22;778;50.120;8.698;2022-12-07T10:50:25;7.10;99.90
1570;DHT22;778;50.120;8.698;2022-12-07T10:53:10;7.10;99.90
1570;DHT22;778;50.120;8.698;2022-12-07T10:55:58;7.30;99.90
1570;DHT22;778;50.120;8.698;2022-12-07T10:58:57;7.10;99.90
1570;DHT22;778;50.120;8.698;2022-12-07T11:01:35;7.10;99.90
1570;DHT22;778;50.120;8.698;2022-12-07T11:04:21;7.40;99.90
1570;DHT22;778;50.120;8.698;2022-12-07T11:06:59;7.70;99.90
1570;DHT22;778;50.120;8.698;2022-12-07T11:09:47;7.60;99.90
1570;DHT22;778;50.120;8.698;2022-12-07T11:12:58;7.70;99.90
1570;DHT22;778;50.120;8.698;2022-12-07T11:15:49;8.10;99.90
1570;DHT22;778;50.120;8.698;2022-12-07T11:18:26;8.30;99.90
1570;DHT22;778;50.120;8.698;2022-12-07T11:21:04;8.20;99.90
1570;DHT22;778;50.120;8.698;2022-12-07T11:23:45;8.00;99.90
1570;DHT22;778;50.120;8.698;2022-12-07T11:26:25;7.80;99.90
1570;DHT22;778;50.120;8.698;2022-12-07T11:32:15;7.60;99.90
1570;DHT22;778;50.120;8.698;2022-12-07T11:34:55;7.50;99.90
1570;DHT22;778;50.120;8.698;2022-12-07T11:37:31;7.50;99.90
1570;DHT22;778;50.120;8.698;2022-12-07T11:40:15;7.40;99.90
1570;DHT22;778;50.120;8.698;2022-12-07T11:42:51;7.30;99.90
1570;DHT22;778;50.120;8.698;2022-12-07T11:45:25;7.30;99.90
1570;DHT22;778;50.120;8.698;2022-12-07T11:47:58;7.40;99.90
1570;DHT22;778;50.120;8.698;2022-12-07T11:50:34;7.40;99.90
1570;DHT22;778;50.120;8.698;2022-12-07T11:53:12;7.40;99.90
1570;DHT22;778;50.120;8.698;2022-12-07T11:55:47;7.40;99.90
1570;DHT22;778;50.120;8.698;2022-12-07T11:58:28;7.40;99.90
1570;DHT22;778;50.120;8.698;2022-12-07T12:01:14;7.40;99.90
1570;DHT22;778;50.120;8.698;2022-12-07T12:03:49;7.40;99.90
1570;DHT22;778;50.120;8.698;2022-12-07T12:06:20;7.40;99.90
1570;DHT22;778;50.120;8.698;2022-12-07T12:08:54;7.60;99.90
1570;DHT22;778;50.120;8.698;2022-12-07T12:12:07;7.70;99.90
1570;DHT22;778;50.120;8.698;2022-12-07T12:15:30;7.70;99.90
1570;DHT22;778;50.120;8.698;2022-12-07T12:18:21;7.60;99.90
1570;DHT22;778;50.120;8.698;2022-12-07T12:21:01;7.60;99.90
1570;DHT22;778;50.120;8.698;2022-12-07T12:23:38;7.50;99.90
1570;DHT22;778;50.120;8.698;2022-12-07T12:26:16;7.50;99.90
1570;DHT22;778;50.120;8.698;2022-12-07T12:28:54;7.40;99.90
1570;DHT22;778;50.120;8.698;2022-12-07T12:31:36;7.50;99.90
1570;DHT22;778;50.120;8.698;2022-12-07T12:34:32;7.40;99.90
1570;DHT22;778;50.120;8.698;2022-12-07T12:37:40;7.50;99.90
1570;DHT22;778;50.120;8.698;2022-12-07T12:43:43;7.50;99.90
1570;DHT22;778;50.120;8.698;2022-12-07T12:46:50;7.70;99.90
1570;DHT22;778;50.120;8.698;2022-12-07T12:52:59;7.70;99.90
1570;DHT22;778;50.120;8.698;2022-12-07T12:56:02;7.70;99.90
1570;DHT22;778;50.120;8.698;2022-12-07T12:59:21;7.70;99.90
1570;DHT22;778;50.120;8.698;2022-12-07T13:01:54;7.90;99.90
1570;DHT22;778;50.120;8.698;2022-12-07T13:08:00;7.50;99.90
1570;DHT22;778;50.120;8.698;2022-12-07T13:10:38;7.50;99.90
1570;DHT22;778;50.120;8.698;2022-12-07T13:13:34;7.50;99.90
1570;DHT22;778;50.120;8.698;2022-12-07T13:16:38;7.50;99.90
1570;DHT22;778;50.120;8.698;2022-12-07T13:22:47;7.40;99.90
1570;DHT22;778;50.120;8.698;2022-12-07T13:25:41;7.50;99.90
1570;DHT22;778;50.120;8.698;2022-12-07T13:28:16;7.60;99.90
1570;DHT22;778;50.120;8.698;2022-12-07T13:30:50;7.70;99.90
1570;DHT22;778;50.120;8.698;2022-12-07T13:33:28;7.90;99.90
1570;DHT22;778;50.120;8.698;2022-12-07T13:35:57;7.90;99.90
1570;DHT22;778;50.120;8.698;2022-12-07T13:38:29;7.80;99.90
1570;DHT22;778;50.120;8.698;2022-12-07T13:41:12;7.70;99.90
1570;DHT22;778;50.120;8.698;2022-12-07T13:43:44;7.50;99.90
1570;DHT22;778;50.120;8.698;2022-12-07T13:46:13;7.40;99.90
1570;DHT22;778;50.120;8.698;2022-12-07T13:48:47;7.20;99.90
1570;DHT22;778;50.120;8.698;2022-12-07T13:51:21;7.50;99.90
1570;DHT22;778;50.120;8.698;2022-12-07T13:53:53;7.40;99.90
1570;DHT22;778;50.120;8.698;2022-12-07T13:56:28;7.30;99.90
1570;DHT22;778;50.120;8.698;2022-12-07T13:59:01;7.20;99.90
1570;DHT22;778;50.120;8.698;2022-12-07T14:01:31;7.20;99.90
1570;DHT22;778;50.120;8.698;2022-12-07T14:04:31;7.10;99.90
1570;DHT22;778;50.120;8.698;2022-12-07T14:07:18;7.00;99.90
1570;DHT22;778;50.120;8.698;2022-12-07T14:09:56;7.00;99.90
1570;DHT22;778;50.120;8.698;2022-12-07T14:12:29;7.00;99.90
1570;DHT22;778;50.120;8.698;2022-12-07T14:14:59;7.00;99.90
1570;DHT22;778;50.120;8.698;2022-12-07T14:17:29;6.90;99.90
1570;DHT22;778;50.120;8.698;2022-12-07T14:19:58;6.90;99.90
1570;DHT22;778;50.120;8.698;2022-12-07T14:22:30;6.90;99.90
1570;DHT22;778;50.120;8.698;2022-12-07T14:25:09;6.90;99.90
1570;DHT22;778;50.120;8.698;2022-12-07T14:27:55;6.90;99.90
1570;DHT22;778;50.120;8.698;2022-12-07T14:30:27;6.80;99.90
1570;DHT22;778;50.120;8.698;2022-12-07T14:32:59;6.80;99.90
1570;DHT22;778;50.120;8.698;2022-12-07T14:35:29;6.80;99.90
1570;DHT22;778;50.120;8.698;2022-12-07T14:37:58;6.80;99.90
1570;DHT22;778;50.120;8.698;2022-12-07T14:40:28;6.80;99.90
1570;DHT22;778;50.120;8.698;2022-12-07T14:43:01;6.90;99.90
1570;DHT22;778;50.120;8.698;2022-12-07T14:45:31;6.90;99.90
1570;DHT22;778;50.120;8.698;2022-12-07T14:47:59;6.90;99.90
1570;DHT22;778;50.120;8.698;2022-12-07T14:50:51;6.80;99.90
1570;DHT22;778;50.120;8.698;2022-12-07T14:53:43;6.70;99.90
1570;DHT22;778;50.120;8.698;2022-12-07T14:56:21;6.70;99.90
1570;DHT22;778;50.120;8.698;2022-12-07T14:58:51;6.70;99.90
1570;DHT22;778;50.120;8.698;2022-12-07T15:01:19;6.70;99.90
1570;DHT22;778;50.120;8.698;2022-12-07T15:03:48;6.70;99.90
1570;DHT22;778;50.120;8.698;2022-12-07T15:06:18;6.50;99.90
1570;DHT22;778;50.120;8.698;2022-12-07T15:08:47;6.40;99.90
1570;DHT22;778;50.120;8.698;2022-12-07T15:11:17;6.20;99.90
1570;DHT22;778;50.120;8.698;2022-12-07T15:13:46;6.20;99.90
1570;DHT22;778;50.120;8.698;2022-12-07T15:16:34;6.20;99.90
1570;DHT22;778;50.120;8.698;2022-12-07T15:19:24;6.10;99.90
1570;DHT22;778;50.120;8.698;2022-12-07T15:21:56;6.20;99.90
1570;DHT22;778;50.120;8.698;2022-12-07T15:24:27;6.10;99.90
1570;DHT22;778;50.120;8.698;2022-12-07T15:26:55;6.10;99.90
1570;DHT22;778;50.120;8.698;2022-12-07T15:29:24;6.00;99.90
1570;DHT22;778;50.120;8.698;2022-12-07T15:31:54;6.10;99.90
1570;DHT22;778;50.120;8.698;2022-12-07T15:34:25;6.20;99.90
1570;DHT22;778;50.120;8.698;2022-12-07T15:37:03;6.30;99.90
1570;DHT22;778;50.120;8.698;2022-12-07T15:39:32;6.30;99.90
1570;DHT22;778;50.120;8.698;2022-12-07T15:42:00;6.20;99.90
1570;DHT22;778;50.120;8.698;2022-12-07T15:44:29;6.20;99.90
1570;DHT22;778;50.120;8.698;2022-12-07T15:47:17;6.20;99.90
1570;DHT22;778;50.120;8.698;2022-12-07T15:49:45;6.20;99.90
1570;DHT22;778;50.120;8.698;2022-12-07T15:52:13;6.20;99.90
1570;DHT22;778;50.120;8.698;2022-12-07T15:54:42;6.20;99.90
1570;DHT22;778;50.120;8.698;2022-12-07T15:57:11;6.20;99.90
1570;DHT22;778;50.120;8.698;2022-12-07T15:59:39;6.20;99.90
1570;DHT22;778;50.120;8.698;2022-12-07T16:02:08;6.00;99.90
1570;DHT22;778;50.120;8.698;2022-12-07T16:04:39;6.10;99.90
1570;DHT22;778;50.120;8.698;2022-12-07T16:07:08;6.10;99.90
1570;DHT22;778;50.120;8.698;2022-12-07T16:09:38;6.10;99.90
1570;DHT22;778;50.120;8.698;2022-12-07T16:12:07;6.00;99.90
1570;DHT22;778;50.120;8.698;2022-12-07T16:14:35;6.00;99.90
1570;DHT22;778;50.120;8.698;2022-12-07T16:17:04;6.10;99.90
1570;DHT22;778;50.120;8.698;2022-12-07T16:19:34;6.10;99.90
1570;DHT22;778;50.120;8.698;2022-12-07T16:22:04;6.10;99.90
1570;DHT22;778;50.120;8.698;2022-12-07T16:24:33;6.20;99.90
1570;DHT22;778;50.120;8.698;2022-12-07T16:27:01;6.20;99.90
1570;DHT22;778;50.120;8.698;2022-12-07T16:29:30;6.20;99.90
1570;DHT22;778;50.120;8.698;2022-12-07T16:31:58;6.10;99.90
1570;DHT22;778;50.120;8.698;2022-12-07T16:34:27;6.10;99.90
1570;DHT22;778;50.120;8.698;2022-12-07T16:36:55;6.10;99.90
1570;DHT22;778;50.120;8.698;2022-12-07T16:39:34;6.10;99.90
1570;DHT22;778;50.120;8.698;2022-12-07T16:42:02;6.10;99.90
1570;DHT22;778;50.120;8.698;2022-12-07T16:44:31;6.10;99.90
1570;DHT22;778;50.120;8.698;2022-12-07T16:47:00;6.10;99.90
1570;DHT22;778;50.120;8.698;2022-12-07T16:49:28;6.20;99.90
1570;DHT22;778;50.120;8.698;2022-12-07T16:51:57;6.10;99.90
1570;DHT22;778;50.120;8.698;2022-12-07T16:54:47;6.10;99.90
1570;DHT22;778;50.120;8.698;2022-12-07T16:57:16;6.10;99.90
1570;DHT22;778;50.120;8.698;2022-12-07T16:59:50;6.10;99.90
1570;DHT22;778;50.120;8.698;2022-12-07T17:02:19;6.10;99.90
1570;DHT22;778;50.120;8.698;2022-12-07T17:04:48;6.10;99.90
1570;DHT22;778;50.120;8.698;2022-12-07T17:07:16;6.00;99.90
1570;DHT22;778;50.120;8.698;2022-12-07T17:09:46;6.00;99.90
1570;DHT22;778;50.120;8.698;2022-12-07T17:12:15;6.00;99.90
1570;DHT22;778;50.120;8.698;2022-12-07T17:14:43;6.00;99.90
1570;DHT22;778;50.120;8.698;2022-12-07T17:17:29;6.00;99.90
1570;DHT22;778;50.120;8.698;2022-12-07T17:19:59;5.90;99.90
1570;DHT22;778;50.120;8.698;2022-12-07T17:22:27;5.90;99.90
1570;DHT22;778;50.120;8.698;2022-12-07T17:24:57;5.90;99.90
1570;DHT22;778;50.120;8.698;2022-12-07T17:27:26;5.90;99.90
1570;DHT22;778;50.120;8.698;2022-12-07T17:29:55;6.00;99.90
1570;DHT22;778;50.120;8.698;2022-12-07T17:32:23;6.00;99.90
1570;DHT22;778;50.120;8.698;2022-12-07T17:34:52;6.00;99.90
1570;DHT22;778;50.120;8.698;2022-12-07T17:37:20;6.00;99.90
1570;DHT22;778;50.120;8.698;2022-12-07T17:39:48;5.90;99.90